createdAt,value
2023-02-05T00:00:51.619Z,2.38
2023-02-05T00:03:20.034Z,4.18
2023-02-05T00:05:48.364Z,1.80
2023-02-05T00:08:16.716Z,6.38
2023-02-05T00:10:51.545Z,1.38
2023-02-05T00:13:19.947Z,2.17
2023-02-05T00:15:49.741Z,4.03
2023-02-05T00:18:21.209Z,1.35
2023-02-05T00:20:50.548Z,1.88
2023-02-05T00:23:18.928Z,1.50
2023-02-05T00:25:48.720Z,5.13
2023-02-05T00:28:17.082Z,3.25
2023-02-05T00:30:45.583Z,2.20
2023-02-05T00:33:13.937Z,1.77
2023-02-05T00:35:43.470Z,1.35
2023-02-05T00:38:11.836Z,1.02
2023-02-05T00:40:40.173Z,0.90
2023-02-05T00:43:12.604Z,3.45
2023-02-05T00:45:40.957Z,1.65
2023-02-05T00:48:09.312Z,1.00
2023-02-05T00:50:37.677Z,3.20
2023-02-05T00:53:08.858Z,0.98
2023-02-05T00:55:37.184Z,2.72
2023-02-05T00:58:05.534Z,1.13
2023-02-05T01:00:35.216Z,1.95
2023-02-05T01:03:03.510Z,1.20
2023-02-05T01:05:32.030Z,0.77
2023-02-05T01:08:02.160Z,1.52
2023-02-05T01:10:32.097Z,0.50
2023-02-05T01:13:00.489Z,2.40
2023-02-05T01:15:32.134Z,4.38
2023-02-05T01:18:02.065Z,1.77
2023-02-05T01:20:30.423Z,2.47
2023-02-05T01:22:58.739Z,1.50
2023-02-05T01:25:27.102Z,1.80
2023-02-05T01:27:55.586Z,0.80
2023-02-05T01:30:24.005Z,6.72
2023-02-05T01:32:52.365Z,0.73
2023-02-05T01:35:23.548Z,2.47
2023-02-05T01:37:51.929Z,1.38
2023-02-05T01:40:20.682Z,2.67
2023-02-05T01:42:51.801Z,1.67
2023-02-05T01:46:07.845Z,2.13
2023-02-05T01:48:39.387Z,1.13
2023-02-05T01:51:10.196Z,2.55
2023-02-05T01:53:38.866Z,1.48
2023-02-05T01:56:09.329Z,3.53
2023-02-05T01:58:42.211Z,1.50
2023-02-05T02:01:10.558Z,0.40
2023-02-05T02:03:38.898Z,0.80
2023-02-05T02:06:09.090Z,1.40
2023-02-05T02:08:37.402Z,1.35
2023-02-05T02:11:07.115Z,2.47
2023-02-05T02:13:36.049Z,1.05
2023-02-05T02:16:04.862Z,1.83
2023-02-05T02:18:33.392Z,2.53
2023-02-05T02:21:35.372Z,1.33
2023-02-05T02:24:31.465Z,1.15
2023-02-05T02:27:18.916Z,0.50
2023-02-05T02:29:52.430Z,0.82
2023-02-05T02:32:24.099Z,1.70
2023-02-05T02:34:56.061Z,0.80
2023-02-05T02:37:26.369Z,1.17
2023-02-05T02:39:58.702Z,0.98
2023-02-05T02:42:30.337Z,4.15
2023-02-05T02:45:00.876Z,2.08
2023-02-05T02:47:31.854Z,1.85
2023-02-05T02:50:01.898Z,1.75
2023-02-05T02:52:32.947Z,1.33
2023-02-05T02:55:05.384Z,1.23
2023-02-05T02:57:33.735Z,1.65
2023-02-05T03:00:04.962Z,1.55
2023-02-05T03:02:33.849Z,3.80
2023-02-05T03:05:04.146Z,1.15
2023-02-05T03:07:34.080Z,1.98
2023-02-05T03:10:03.972Z,1.63
2023-02-05T03:12:32.382Z,1.77
2023-02-05T03:15:00.757Z,2.70
2023-02-05T03:17:30.544Z,1.88
2023-02-05T03:20:00.332Z,1.65
2023-02-05T03:22:28.795Z,1.27
2023-02-05T03:24:57.093Z,1.25
2023-02-05T03:27:25.386Z,0.98
2023-02-05T03:29:53.690Z,2.05
2023-02-05T03:32:28.479Z,1.33
2023-02-05T03:35:03.901Z,2.22
2023-02-05T03:37:38.675Z,0.90
2023-02-05T03:40:10.594Z,1.45
2023-02-05T03:42:44.403Z,1.70
2023-02-05T03:45:20.882Z,1.85
2023-02-05T03:47:58.051Z,1.60
2023-02-05T03:53:00.513Z,1.13
2023-02-05T03:55:29.960Z,1.50
2023-02-05T03:57:59.701Z,1.25
2023-02-05T04:00:27.990Z,3.10
2023-02-05T04:02:56.331Z,2.80
2023-02-05T04:05:27.438Z,2.38
2023-02-05T04:07:57.111Z,2.67
2023-02-05T04:10:25.512Z,1.88
2023-02-05T04:12:53.801Z,3.03
2023-02-05T04:15:22.155Z,1.02
2023-02-05T04:17:50.443Z,1.55
2023-02-05T04:20:19.180Z,1.63
2023-02-05T04:22:47.476Z,2.70
2023-02-05T04:25:17.315Z,1.05
2023-02-05T04:27:45.620Z,3.90
2023-02-05T04:30:14.320Z,1.63
2023-02-05T04:32:42.656Z,3.92
2023-02-05T04:35:11.101Z,1.27
2023-02-05T04:37:42.337Z,2.10
2023-02-05T04:40:11.412Z,1.45
2023-02-05T04:42:41.143Z,4.03
2023-02-05T04:45:10.540Z,1.08
2023-02-05T04:47:38.894Z,2.75
2023-02-05T04:50:07.629Z,0.98
2023-02-05T04:52:35.937Z,1.17
2023-02-05T04:55:04.350Z,2.95
2023-02-05T04:57:32.717Z,2.15
2023-02-05T05:00:02.398Z,1.67
2023-02-05T05:02:30.766Z,1.55
2023-02-05T05:05:01.553Z,2.40
2023-02-05T05:07:31.033Z,4.05
2023-02-05T05:09:59.393Z,1.88
2023-02-05T05:12:27.738Z,1.52
2023-02-05T05:14:56.467Z,1.90
2023-02-05T05:17:26.123Z,3.03
2023-02-05T05:19:54.442Z,1.67
2023-02-05T05:22:22.797Z,2.47
2023-02-05T05:24:51.149Z,3.53
2023-02-05T05:27:19.623Z,2.00
2023-02-05T05:29:48.086Z,2.70
2023-02-05T05:32:16.456Z,2.92
2023-02-05T05:34:46.245Z,2.72
2023-02-05T05:37:14.534Z,1.90
2023-02-05T05:40:00.570Z,2.85
2023-02-05T05:42:46.371Z,2.72
2023-02-05T05:45:14.886Z,2.00
2023-02-05T05:47:43.206Z,2.38
2023-02-05T05:50:16.203Z,2.10
2023-02-05T05:52:44.511Z,3.60
2023-02-05T05:55:12.803Z,2.88
2023-02-05T05:57:41.151Z,2.30
2023-02-05T06:00:10.879Z,4.90
2023-02-05T06:02:41.402Z,1.48
2023-02-05T06:05:10.022Z,2.13
2023-02-05T06:07:39.687Z,3.28
2023-02-05T06:10:08.918Z,1.95
2023-02-05T06:12:43.238Z,2.90
2023-02-05T06:15:11.678Z,1.92
2023-02-05T06:17:39.980Z,2.28
2023-02-05T06:20:09.653Z,2.05
2023-02-05T06:22:39.387Z,1.55
2023-02-05T06:25:07.906Z,1.42
2023-02-05T06:27:36.201Z,1.73
2023-02-05T06:30:07.066Z,2.33
2023-02-05T06:32:35.422Z,2.15
2023-02-05T06:35:03.725Z,1.65
2023-02-05T06:37:46.832Z,1.38
2023-02-05T06:40:18.097Z,1.70
2023-02-05T06:42:46.683Z,1.55
2023-02-05T06:45:15.072Z,1.52
2023-02-05T06:47:43.374Z,1.70
2023-02-05T06:50:11.760Z,2.90
2023-02-05T06:52:43.202Z,3.35
2023-02-05T06:55:11.570Z,1.65
2023-02-05T06:57:41.282Z,2.10
2023-02-05T07:00:11.355Z,0.88
2023-02-05T07:02:39.700Z,2.35
2023-02-05T07:05:08.364Z,2.55
2023-02-05T07:07:36.750Z,2.78
2023-02-05T07:10:05.596Z,1.33
2023-02-05T07:12:33.940Z,1.10
2023-02-05T07:15:03.660Z,2.00
2023-02-05T07:17:34.390Z,1.70
2023-02-05T07:20:02.757Z,1.75
2023-02-05T07:22:31.060Z,2.97
2023-02-05T07:24:59.391Z,2.80
2023-02-05T07:27:27.868Z,2.58
2023-02-05T07:29:56.918Z,1.30
2023-02-05T07:32:27.306Z,1.90
2023-02-05T07:34:56.028Z,3.38
2023-02-05T07:37:24.492Z,1.42
2023-02-05T07:39:52.905Z,1.38
2023-02-05T07:42:21.432Z,1.60
2023-02-05T07:44:49.886Z,1.65
2023-02-05T07:47:18.350Z,2.45
2023-02-05T07:49:48.512Z,1.55
2023-02-05T07:52:17.055Z,1.42
2023-02-05T07:54:45.497Z,1.73
2023-02-05T07:57:14.137Z,0.88
2023-02-05T07:59:42.589Z,5.55
2023-02-05T08:02:11.114Z,1.75
2023-02-05T08:04:39.528Z,2.63
2023-02-05T08:07:10.201Z,1.05
2023-02-05T08:09:38.588Z,1.23
2023-02-05T08:12:07.581Z,5.90
2023-02-05T08:14:36.577Z,2.05
2023-02-05T08:17:06.043Z,2.03
2023-02-05T08:19:34.420Z,3.75
2023-02-05T08:22:02.828Z,4.35
2023-02-05T08:24:33.922Z,2.35
2023-02-05T08:27:02.229Z,4.65
2023-02-05T08:29:30.516Z,2.08
2023-02-05T08:31:58.840Z,3.58
2023-02-05T08:34:27.286Z,6.28
2023-02-05T08:36:59.748Z,9.60
2023-02-05T08:39:30.294Z,13.93
2023-02-05T08:41:59.980Z,20.35
2023-02-05T08:44:29.035Z,34.88
2023-02-05T08:47:03.559Z,32.67
2023-02-05T08:49:31.964Z,33.15
2023-02-05T08:52:00.352Z,24.98
2023-02-05T08:54:28.704Z,27.42
2023-02-05T08:56:57.475Z,29.52
2023-02-05T08:59:27.184Z,21.60
2023-02-05T09:01:55.757Z,22.20
2023-02-05T09:04:25.541Z,20.05
2023-02-05T09:06:54.468Z,22.30
2023-02-05T09:09:22.981Z,24.08
2023-02-05T09:11:53.682Z,12.80
2023-02-05T09:14:22.267Z,15.48
2023-02-05T09:16:52.185Z,22.13
2023-02-05T09:19:20.654Z,13.35
2023-02-05T09:21:49.196Z,13.60
2023-02-05T09:24:17.744Z,12.80
2023-02-05T09:26:46.291Z,16.73
2023-02-05T09:29:14.700Z,15.95
2023-02-05T09:31:43.243Z,15.70
2023-02-05T09:34:13.581Z,15.40
2023-02-05T09:36:42.274Z,22.95
2023-02-05T09:39:18.424Z,10.90
2023-02-05T09:42:01.264Z,15.07
2023-02-05T09:44:42.712Z,12.20
2023-02-05T09:47:14.596Z,10.30
2023-02-05T09:49:46.651Z,7.80
2023-02-05T09:52:19.193Z,15.35
2023-02-05T09:54:49.379Z,13.75
2023-02-05T09:57:19.053Z,13.38
2023-02-05T09:59:48.161Z,12.68
2023-02-05T10:02:23.598Z,9.13
2023-02-05T10:04:54.876Z,10.20
2023-02-05T10:07:39.340Z,13.15
2023-02-05T10:10:26.820Z,11.30
2023-02-05T10:13:23.569Z,11.77
2023-02-05T10:16:04.465Z,11.27
2023-02-05T10:18:36.466Z,8.82
2023-02-05T10:21:11.164Z,10.80
2023-02-05T10:23:54.624Z,9.32
2023-02-05T10:26:23.597Z,9.48
2023-02-05T10:29:03.706Z,9.10
2023-02-05T10:31:40.546Z,10.48
2023-02-05T10:34:20.894Z,10.55
2023-02-05T10:36:54.752Z,10.48
2023-02-05T10:39:26.329Z,10.20
2023-02-05T10:41:57.341Z,10.77
2023-02-05T10:44:29.639Z,7.95
2023-02-05T10:47:03.618Z,9.68
2023-02-05T10:49:39.490Z,12.65
2023-02-05T10:52:11.243Z,12.38
2023-02-05T10:54:40.337Z,9.68
2023-02-05T10:57:13.580Z,12.48
2023-02-05T10:59:48.978Z,10.15
2023-02-05T11:02:17.328Z,10.30
2023-02-05T11:04:47.767Z,12.32
2023-02-05T11:07:22.912Z,8.20
2023-02-05T11:09:51.220Z,12.80
2023-02-05T11:12:24.089Z,9.77
2023-02-05T11:14:57.448Z,8.13
2023-02-05T11:17:29.838Z,11.23
2023-02-05T11:20:00.059Z,6.32
2023-02-05T11:22:30.416Z,6.63
2023-02-05T11:25:12.174Z,7.78
2023-02-05T11:27:40.631Z,8.68
2023-02-05T11:30:49.689Z,6.78
2023-02-05T11:33:20.153Z,10.35
2023-02-05T11:35:53.383Z,6.25
2023-02-05T11:38:29.870Z,9.30
2023-02-05T11:40:59.507Z,8.65
2023-02-05T11:43:29.556Z,8.50
2023-02-05T11:45:58.587Z,7.18
2023-02-05T11:48:32.700Z,7.28
2023-02-05T11:51:01.250Z,8.93
2023-02-05T11:53:32.888Z,9.18
2023-02-05T11:56:02.971Z,6.65
2023-02-05T11:58:36.964Z,4.07
2023-02-05T12:01:07.908Z,8.70
2023-02-05T12:03:36.399Z,10.75
2023-02-05T12:06:12.766Z,8.02
2023-02-05T12:08:44.689Z,5.97
2023-02-05T12:11:56.060Z,9.10
2023-02-05T12:14:27.524Z,4.97
2023-02-05T12:16:59.844Z,8.25
2023-02-05T12:19:33.076Z,6.32
2023-02-05T12:22:03.343Z,10.90
2023-02-05T12:24:54.552Z,10.65
2023-02-05T12:27:35.326Z,10.48
2023-02-05T12:30:11.481Z,10.88
2023-02-05T12:32:42.662Z,13.77
2023-02-05T12:35:21.367Z,9.35
2023-02-05T12:37:52.206Z,8.88
2023-02-05T12:40:37.503Z,9.40
2023-02-05T12:43:10.540Z,8.07
2023-02-05T12:45:45.620Z,9.00
2023-02-05T12:48:22.221Z,9.18
2023-02-05T12:50:55.254Z,5.60
2023-02-05T12:53:40.438Z,8.13
2023-02-05T12:56:33.620Z,7.47
2023-02-05T12:59:03.466Z,8.60
2023-02-05T13:01:38.231Z,8.07
2023-02-05T13:04:06.757Z,8.02
2023-02-05T13:06:36.183Z,5.68
2023-02-05T13:09:06.120Z,7.32
2023-02-05T13:11:37.983Z,10.55
2023-02-05T13:14:09.724Z,7.65
2023-02-05T13:16:41.214Z,6.63
2023-02-05T13:19:16.172Z,6.47
2023-02-05T13:22:02.294Z,5.80
2023-02-05T13:24:48.883Z,10.88
2023-02-05T13:27:39.686Z,10.43
2023-02-05T13:30:10.389Z,9.27
2023-02-05T13:32:39.088Z,10.88
2023-02-05T13:35:08.629Z,9.85
2023-02-05T13:37:55.709Z,10.40
2023-02-05T13:40:44.622Z,8.93
2023-02-05T13:43:32.754Z,11.40
2023-02-05T13:46:28.191Z,8.40
2023-02-05T13:49:15.811Z,6.90
2023-02-05T13:54:36.106Z,6.55
2023-02-05T13:57:14.195Z,8.07
2023-02-05T13:59:46.048Z,9.57
2023-02-05T14:02:32.388Z,9.05
2023-02-05T14:05:00.738Z,6.95
2023-02-05T14:07:30.072Z,8.23
2023-02-05T14:10:00.687Z,12.13
2023-02-05T14:12:30.143Z,8.63
2023-02-05T14:15:24.717Z,9.13
2023-02-05T14:17:54.716Z,7.13
2023-02-05T14:20:36.607Z,7.63
2023-02-05T14:23:12.918Z,8.75
2023-02-05T14:26:06.636Z,9.87
2023-02-05T14:28:36.697Z,13.48
2023-02-05T14:31:07.401Z,8.85
2023-02-05T14:33:40.079Z,10.65
2023-02-05T14:36:29.849Z,11.50
2023-02-05T14:39:00.846Z,8.43
2023-02-05T14:41:31.086Z,7.22
2023-02-05T14:44:01.265Z,7.80
2023-02-05T14:46:33.913Z,6.30
2023-02-05T14:49:03.352Z,9.93
2023-02-05T14:51:37.570Z,6.88
2023-02-05T14:54:06.948Z,9.63
2023-02-05T14:56:39.355Z,5.60
2023-02-05T14:59:17.708Z,10.18
2023-02-05T15:01:54.245Z,6.82
2023-02-05T15:04:28.756Z,7.40
2023-02-05T15:06:57.590Z,8.10
2023-02-05T15:09:38.198Z,8.70
2023-02-05T15:12:25.672Z,9.73
2023-02-05T15:14:54.828Z,8.73
2023-02-05T15:17:53.224Z,11.73
2023-02-05T15:20:24.065Z,9.02
2023-02-05T15:22:55.669Z,10.73
2023-02-05T15:25:31.568Z,15.25
2023-02-05T15:28:02.409Z,10.98
2023-02-05T15:30:33.282Z,8.80
2023-02-05T15:33:06.421Z,12.07
2023-02-05T15:35:34.999Z,9.98
2023-02-05T15:38:04.786Z,11.77
2023-02-05T15:40:34.132Z,11.40
2023-02-05T15:43:02.989Z,12.43
2023-02-05T15:45:33.589Z,9.95
2023-02-05T15:48:04.112Z,13.98
2023-02-05T15:50:32.468Z,6.38
2023-02-05T15:53:00.763Z,9.20
2023-02-05T15:55:29.217Z,9.90
2023-02-05T15:58:00.446Z,8.02
2023-02-05T16:00:30.331Z,12.77
2023-02-05T16:02:59.821Z,10.35
2023-02-05T16:05:30.221Z,9.93
2023-02-05T16:07:59.044Z,11.65
2023-02-05T16:10:28.473Z,9.15
2023-02-05T16:13:06.360Z,9.57
2023-02-05T16:15:36.026Z,8.07
2023-02-05T16:18:04.704Z,6.45
2023-02-05T16:20:35.401Z,11.85
2023-02-05T16:23:05.246Z,6.00
2023-02-05T16:25:36.453Z,7.90
2023-02-05T16:28:07.146Z,5.97
2023-02-05T16:30:40.588Z,7.93
2023-02-05T16:33:09.280Z,8.77
2023-02-05T16:35:40.199Z,5.38
2023-02-05T16:38:14.373Z,10.77
2023-02-05T16:40:43.971Z,7.65
2023-02-05T16:43:26.718Z,12.68
2023-02-05T16:46:23.663Z,9.30
2023-02-05T16:48:53.128Z,9.95
2023-02-05T16:51:31.760Z,7.72
2023-02-05T16:54:01.195Z,7.38
2023-02-05T16:56:30.557Z,9.32
2023-02-05T16:59:00.423Z,9.05
2023-02-05T17:01:32.303Z,7.82
2023-02-05T17:04:00.894Z,7.82
2023-02-05T17:06:34.269Z,7.28
2023-02-05T17:09:04.976Z,7.88
2023-02-05T17:11:36.322Z,7.43
2023-02-05T17:14:24.505Z,8.40
2023-02-05T17:16:57.974Z,10.55
2023-02-05T17:19:27.728Z,6.75
2023-02-05T17:22:21.784Z,7.32
2023-02-05T17:24:52.406Z,6.53
2023-02-05T17:27:43.861Z,5.38
2023-02-05T17:30:17.449Z,5.22
2023-02-05T17:32:47.245Z,6.57
2023-02-05T17:35:16.667Z,6.70
2023-02-05T17:37:46.680Z,6.55
2023-02-05T17:40:15.661Z,6.13
2023-02-05T17:42:46.294Z,6.80
2023-02-05T17:45:17.254Z,6.40
2023-02-05T17:47:46.107Z,7.72
2023-02-05T17:50:15.196Z,5.22
2023-02-05T17:52:45.247Z,4.10
2023-02-05T17:55:16.953Z,6.53
2023-02-05T17:57:45.476Z,4.47
2023-02-05T18:00:17.236Z,7.95
2023-02-05T18:02:45.675Z,6.35
2023-02-05T18:05:15.524Z,5.90
2023-02-05T18:07:46.468Z,7.55
2023-02-05T18:10:18.120Z,5.00
2023-02-05T18:12:46.898Z,5.20
2023-02-05T18:15:15.409Z,5.55
2023-02-05T18:17:43.847Z,6.38
2023-02-05T18:20:12.662Z,4.05
2023-02-05T18:22:41.071Z,4.47
2023-02-05T18:25:09.866Z,4.13
2023-02-05T18:27:40.693Z,6.32
2023-02-05T18:30:12.962Z,3.63
2023-02-05T18:32:41.260Z,5.72
2023-02-05T18:35:14.220Z,5.65
2023-02-05T18:37:42.990Z,6.13
2023-02-05T18:40:15.164Z,6.30
2023-02-05T18:42:48.778Z,5.15
2023-02-05T18:45:17.199Z,5.75
2023-02-05T18:47:45.560Z,5.68
2023-02-05T18:50:13.920Z,5.90
2023-02-05T18:52:49.150Z,7.88
2023-02-05T18:55:17.516Z,7.40
2023-02-05T18:57:47.167Z,6.82
2023-02-05T19:00:16.266Z,5.38
2023-02-05T19:02:44.639Z,6.40
2023-02-05T19:05:12.976Z,4.32
2023-02-05T19:07:41.407Z,5.38
2023-02-05T19:10:09.873Z,5.13
2023-02-05T19:12:38.240Z,5.00
2023-02-05T19:15:09.035Z,5.13
2023-02-05T19:17:37.394Z,5.05
2023-02-05T19:20:08.519Z,5.18
2023-02-05T19:22:36.861Z,5.78
2023-02-05T19:25:05.231Z,3.55
2023-02-05T19:27:36.079Z,4.18
2023-02-05T19:30:05.855Z,3.42
2023-02-05T19:32:35.898Z,5.47
2023-02-05T19:35:06.241Z,3.83
2023-02-05T19:37:34.556Z,5.55
2023-02-05T19:40:02.917Z,6.47
2023-02-05T19:42:31.316Z,5.28
2023-02-05T19:44:59.659Z,3.75
2023-02-05T19:47:29.051Z,3.88
2023-02-05T19:49:58.754Z,2.75
2023-02-05T19:52:27.102Z,3.75
2023-02-05T19:54:55.534Z,6.22
2023-02-05T19:57:24.900Z,4.80
2023-02-05T19:59:53.195Z,4.15
2023-02-05T20:02:22.534Z,4.78
2023-02-05T20:04:50.950Z,2.95
2023-02-05T20:07:20.660Z,5.65
2023-02-05T20:09:50.436Z,4.90
2023-02-05T20:12:20.911Z,3.25
2023-02-05T20:14:49.237Z,4.47
2023-02-05T20:17:26.638Z,8.75
2023-02-05T20:20:02.558Z,7.00
2023-02-05T20:22:38.962Z,3.67
2023-02-05T20:25:08.083Z,4.55
2023-02-05T20:27:36.461Z,5.60
2023-02-05T20:30:34.826Z,4.75
2023-02-05T20:33:03.392Z,4.25
2023-02-05T20:35:31.875Z,3.72
2023-02-05T20:38:06.973Z,3.80
2023-02-05T20:40:35.589Z,4.80
2023-02-05T20:43:07.081Z,3.17
2023-02-05T20:45:35.470Z,5.28
2023-02-05T20:48:03.851Z,3.75
2023-02-05T20:50:32.252Z,3.28
2023-02-05T20:53:03.747Z,6.07
2023-02-05T20:55:32.103Z,4.47
2023-02-05T20:58:00.449Z,3.95
2023-02-05T21:00:29.032Z,3.97
2023-02-05T21:02:58.616Z,6.20
2023-02-05T21:05:27.007Z,4.38
2023-02-05T21:07:55.373Z,4.30
2023-02-05T21:10:25.024Z,5.95
2023-02-05T21:12:53.311Z,4.25
2023-02-05T21:15:21.654Z,4.18
2023-02-05T21:17:52.785Z,5.13
2023-02-05T21:20:21.244Z,4.20
2023-02-05T21:22:49.620Z,4.53
2023-02-05T21:25:18.190Z,3.80
2023-02-05T21:27:50.268Z,5.13
2023-02-05T21:30:18.936Z,5.63
2023-02-05T21:32:47.260Z,3.70
2023-02-05T21:35:15.690Z,5.97
2023-02-05T21:37:44.253Z,4.15
2023-02-05T21:40:16.041Z,3.92
2023-02-05T21:42:44.463Z,2.92
2023-02-05T21:45:14.290Z,4.22
2023-02-05T21:47:42.930Z,5.45
2023-02-05T21:50:11.471Z,4.18
2023-02-05T21:52:39.848Z,8.45
2023-02-05T21:55:08.899Z,5.70
2023-02-05T21:57:37.214Z,5.68
2023-02-05T22:00:05.879Z,5.75
2023-02-05T22:02:35.611Z,4.57
2023-02-05T22:05:05.527Z,5.85
2023-02-05T22:07:34.084Z,13.82
2023-02-05T22:10:02.416Z,9.70
2023-02-05T22:12:33.517Z,8.30
2023-02-05T22:15:01.800Z,9.32
2023-02-05T22:17:30.145Z,6.75
2023-02-05T22:20:02.509Z,8.35
2023-02-05T22:22:30.869Z,10.10
2023-02-05T22:24:59.223Z,8.65
2023-02-05T22:27:27.932Z,9.32
2023-02-05T22:29:58.943Z,9.55
2023-02-05T22:32:29.179Z,8.02
2023-02-05T22:35:00.763Z,8.52
2023-02-05T22:37:29.455Z,7.05
2023-02-05T22:39:57.754Z,7.22
2023-02-05T22:42:26.864Z,7.63
2023-02-05T22:44:58.889Z,9.30
2023-02-05T22:47:27.352Z,18.30
2023-02-05T22:49:55.690Z,6.90
2023-02-05T22:52:26.198Z,9.77
2023-02-05T22:54:54.550Z,6.30
2023-02-05T22:57:22.845Z,12.15
2023-02-05T22:59:54.249Z,6.90
2023-02-05T23:02:22.621Z,6.90
2023-02-05T23:04:50.921Z,6.93
2023-02-05T23:07:19.231Z,7.75
2023-02-05T23:09:49.123Z,9.73
2023-02-05T23:12:18.755Z,11.95
2023-02-05T23:14:48.340Z,4.28
2023-02-05T23:17:16.789Z,7.50
2023-02-05T23:19:46.540Z,8.32
2023-02-05T23:22:16.135Z,8.73
2023-02-05T23:24:44.496Z,8.93
2023-02-05T23:27:14.379Z,7.95
2023-02-05T23:29:44.031Z,6.00
2023-02-05T23:32:15.035Z,7.43
2023-02-05T23:34:43.400Z,7.47
2023-02-05T23:37:11.839Z,7.57
2023-02-05T23:39:40.182Z,10.50
2023-02-05T23:42:10.084Z,8.80
2023-02-05T23:44:39.787Z,7.80
2023-02-05T23:47:09.105Z,10.65
2023-02-05T23:49:37.689Z,5.93
2023-02-05T23:52:06.192Z,8.75
2023-02-05T23:54:34.490Z,6.60
2023-02-05T23:57:02.840Z,8.10
2023-02-05T23:59:31.179Z,7.25
